createdAt,value
2023-08-13T00:00:01.958Z,12.48
2023-08-13T00:02:33.868Z,9.73
2023-08-13T00:05:01.617Z,9.57
2023-08-13T00:07:29.206Z,10.27
2023-08-13T00:09:56.969Z,10.85
2023-08-13T00:12:24.682Z,12.95
2023-08-13T00:14:52.352Z,11.68
2023-08-13T00:17:21.340Z,16.48
2023-08-13T00:19:49.144Z,12.60
2023-08-13T00:22:17.635Z,10.65
2023-08-13T00:24:47.008Z,9.63
2023-08-13T00:27:14.679Z,8.38
2023-08-13T00:29:42.504Z,13.70
2023-08-13T00:32:10.260Z,10.13
2023-08-13T00:34:39.256Z,10.45
2023-08-13T00:37:06.832Z,10.35
2023-08-13T00:39:34.546Z,10.75
2023-08-13T00:42:02.203Z,9.05
2023-08-13T00:44:29.858Z,9.50
2023-08-13T00:46:57.872Z,9.48
2023-08-13T00:49:26.033Z,7.03
2023-08-13T00:51:55.030Z,19.08
2023-08-13T00:54:23.507Z,10.93
2023-08-13T00:56:52.850Z,7.57
2023-08-13T00:59:21.036Z,11.93
2023-08-13T01:01:48.669Z,12.30
2023-08-13T01:04:16.771Z,9.73
2023-08-13T01:06:48.028Z,10.65
2023-08-13T01:09:21.704Z,9.67
2023-08-13T01:11:53.333Z,8.43
2023-08-13T01:14:25.789Z,7.85
2023-08-13T01:16:54.473Z,8.90
2023-08-13T01:19:22.152Z,7.75
2023-08-13T01:21:49.822Z,9.80
2023-08-13T01:24:18.982Z,9.52
2023-08-13T01:26:51.757Z,6.30
2023-08-13T01:29:22.895Z,8.73
2023-08-13T01:31:53.075Z,11.98
2023-08-13T01:34:20.939Z,11.17
2023-08-13T01:36:48.845Z,11.30
2023-08-13T01:39:16.476Z,9.40
2023-08-13T01:41:52.227Z,13.30
2023-08-13T01:44:19.883Z,10.80
2023-08-13T01:46:47.621Z,10.10
2023-08-13T01:49:15.476Z,10.32
2023-08-13T01:51:42.992Z,8.35
2023-08-13T01:54:10.604Z,13.15
2023-08-13T01:56:38.207Z,10.77
2023-08-13T01:59:07.242Z,9.80
2023-08-13T02:01:35.194Z,9.95
2023-08-13T02:04:02.871Z,9.23
2023-08-13T02:06:34.265Z,10.00
2023-08-13T02:09:01.991Z,11.90
2023-08-13T02:11:29.561Z,8.77
2023-08-13T02:13:57.188Z,11.85
2023-08-13T02:16:26.332Z,8.32
2023-08-13T02:18:54.002Z,11.77
2023-08-13T02:21:22.081Z,9.55
2023-08-13T02:23:49.973Z,13.83
2023-08-13T02:26:17.630Z,10.73
2023-08-13T02:28:46.674Z,11.60
2023-08-13T02:31:14.369Z,8.88
2023-08-13T02:33:43.342Z,12.00
2023-08-13T02:36:10.928Z,9.67
2023-08-13T02:38:38.732Z,10.40
2023-08-13T02:41:06.378Z,11.50
2023-08-13T02:43:35.373Z,11.82
2023-08-13T02:46:03.044Z,13.70
2023-08-13T02:48:30.677Z,14.13
2023-08-13T02:50:59.590Z,8.27
2023-08-13T02:53:27.732Z,13.07
2023-08-13T02:55:55.365Z,9.20
2023-08-13T02:58:22.987Z,10.82
2023-08-13T03:00:50.597Z,11.47
2023-08-13T03:03:18.258Z,10.23
2023-08-13T03:05:45.889Z,12.10
2023-08-13T03:08:15.068Z,10.38
2023-08-13T03:10:42.701Z,13.80
2023-08-13T03:13:10.303Z,9.67
2023-08-13T03:15:38.006Z,8.20
2023-08-13T03:18:06.449Z,15.13
2023-08-13T03:20:34.393Z,9.23
2023-08-13T03:23:02.068Z,9.43
2023-08-13T03:25:31.024Z,17.37
2023-08-13T03:27:58.677Z,8.23
2023-08-13T03:30:26.877Z,10.63
2023-08-13T03:32:54.447Z,11.52
2023-08-13T03:35:22.166Z,11.00
2023-08-13T03:37:49.806Z,11.60
2023-08-13T03:40:17.475Z,10.05
2023-08-13T03:42:46.481Z,8.45
2023-08-13T03:45:14.140Z,7.65
2023-08-13T03:47:41.732Z,12.68
2023-08-13T03:50:09.834Z,9.20
2023-08-13T03:52:37.529Z,8.60
2023-08-13T03:55:05.553Z,9.82
2023-08-13T03:57:33.266Z,10.10
2023-08-13T04:00:02.474Z,9.50
2023-08-13T04:02:34.230Z,10.17
2023-08-13T04:05:06.098Z,10.55
2023-08-13T04:07:33.674Z,7.43
2023-08-13T04:10:01.859Z,7.07
2023-08-13T04:12:30.508Z,9.05
2023-08-13T04:14:58.454Z,10.83
2023-08-13T04:17:27.682Z,11.82
2023-08-13T04:22:40.587Z,8.82
2023-08-13T04:25:09.440Z,7.70
2023-08-13T04:27:37.070Z,11.20
2023-08-13T04:30:05.017Z,11.40
2023-08-13T04:32:35.091Z,7.78
2023-08-13T04:35:03.617Z,7.20
2023-08-13T04:37:31.639Z,11.13
2023-08-13T04:39:59.521Z,7.40
2023-08-13T04:42:29.004Z,8.30
2023-08-13T04:44:56.655Z,8.70
2023-08-13T04:47:24.392Z,9.80
2023-08-13T04:49:53.403Z,7.72
2023-08-13T04:52:21.132Z,10.53
2023-08-13T04:54:49.682Z,7.68
2023-08-13T04:57:17.267Z,7.97
2023-08-13T04:59:45.166Z,9.00
2023-08-13T05:02:12.986Z,6.25
2023-08-13T05:04:40.807Z,12.77
2023-08-13T05:07:10.050Z,9.27
2023-08-13T05:09:38.704Z,6.45
2023-08-13T05:12:06.631Z,8.90
2023-08-13T05:14:34.323Z,9.25
2023-08-13T05:17:01.944Z,7.47
2023-08-13T05:19:29.919Z,10.25
2023-08-13T05:21:57.576Z,10.50
2023-08-13T05:24:26.923Z,8.13
2023-08-13T05:26:54.594Z,7.10
2023-08-13T05:29:26.099Z,8.40
2023-08-13T05:31:54.754Z,9.98
2023-08-13T05:34:22.321Z,9.45
2023-08-13T05:36:50.030Z,10.45
2023-08-13T05:39:17.610Z,8.55
2023-08-13T05:41:47.108Z,8.43
2023-08-13T05:44:14.842Z,7.40
2023-08-13T05:46:42.580Z,10.80
2023-08-13T05:49:10.176Z,9.82
2023-08-13T05:51:37.880Z,10.70
2023-08-13T05:54:05.678Z,10.80
2023-08-13T05:56:33.289Z,7.97
2023-08-13T05:59:02.946Z,11.32
2023-08-13T06:01:36.213Z,7.22
2023-08-13T06:04:04.238Z,11.48
2023-08-13T06:06:31.860Z,5.30
2023-08-13T06:08:59.456Z,8.43
2023-08-13T06:11:27.782Z,4.82
2023-08-13T06:13:55.365Z,6.50
2023-08-13T06:16:24.415Z,5.88
2023-08-13T06:18:52.122Z,6.93
2023-08-13T06:21:22.800Z,8.52
2023-08-13T06:23:50.403Z,7.70
2023-08-13T06:26:18.144Z,6.72
2023-08-13T06:28:45.669Z,6.78
2023-08-13T06:31:25.565Z,7.17
2023-08-13T06:34:01.723Z,9.93
2023-08-13T06:36:29.305Z,7.03
2023-08-13T06:38:57.210Z,4.85
2023-08-13T06:41:24.844Z,6.55
2023-08-13T06:43:55.701Z,5.73
2023-08-13T06:46:23.305Z,6.53
2023-08-13T06:48:51.122Z,6.88
2023-08-13T06:51:20.135Z,6.10
2023-08-13T06:53:47.717Z,6.72
2023-08-13T06:56:15.359Z,7.17
2023-08-13T06:58:43.014Z,5.15
2023-08-13T07:01:10.731Z,4.93
2023-08-13T07:03:38.438Z,3.70
2023-08-13T07:06:07.444Z,7.32
2023-08-13T07:08:36.365Z,8.17
2023-08-13T07:11:04.139Z,6.88
2023-08-13T07:13:32.246Z,5.70
2023-08-13T07:16:01.170Z,7.70
2023-08-13T07:18:31.589Z,8.18
2023-08-13T07:20:59.263Z,4.40
2023-08-13T07:23:27.538Z,5.05
2023-08-13T07:25:56.630Z,5.90
2023-08-13T07:28:24.282Z,5.22
2023-08-13T07:30:52.199Z,6.38
2023-08-13T07:33:20.189Z,5.77
2023-08-13T07:35:49.476Z,4.50
2023-08-13T07:38:17.713Z,4.75
2023-08-13T07:40:45.614Z,7.50
2023-08-13T07:43:14.673Z,7.90
2023-08-13T07:45:42.987Z,8.80
2023-08-13T07:48:10.720Z,6.15
2023-08-13T07:50:38.290Z,4.28
2023-08-13T07:53:06.653Z,6.25
2023-08-13T07:55:34.376Z,6.47
2023-08-13T07:58:01.897Z,4.33
2023-08-13T08:00:31.985Z,5.05
2023-08-13T08:03:00.116Z,8.43
2023-08-13T08:05:28.450Z,3.65
2023-08-13T08:07:56.009Z,5.13
2023-08-13T08:10:24.360Z,6.13
2023-08-13T08:12:52.941Z,5.47
2023-08-13T08:15:22.501Z,6.75
2023-08-13T08:17:51.662Z,5.55
2023-08-13T08:20:19.358Z,6.28
2023-08-13T08:22:47.174Z,3.90
2023-08-13T08:25:14.926Z,5.35
2023-08-13T08:27:42.541Z,7.25
2023-08-13T08:30:10.500Z,6.10
2023-08-13T08:32:39.963Z,4.55
2023-08-13T08:35:09.325Z,4.80
2023-08-13T08:37:36.874Z,7.38
2023-08-13T08:40:04.864Z,7.28
2023-08-13T08:42:32.660Z,8.88
2023-08-13T08:45:00.510Z,5.95
2023-08-13T08:47:28.512Z,4.17
2023-08-13T08:49:56.553Z,4.57
2023-08-13T08:52:25.509Z,6.20
2023-08-13T08:54:53.316Z,4.03
2023-08-13T08:57:20.979Z,8.60
2023-08-13T08:59:48.657Z,5.53
2023-08-13T09:02:19.692Z,7.05
2023-08-13T09:04:48.132Z,3.60
2023-08-13T09:07:16.055Z,4.13
2023-08-13T09:09:47.662Z,4.03
2023-08-13T09:12:16.279Z,6.47
2023-08-13T09:14:46.151Z,6.00
2023-08-13T09:17:14.842Z,5.90
2023-08-13T09:19:42.883Z,6.10
2023-08-13T09:22:11.200Z,6.55
2023-08-13T09:24:39.675Z,9.17
2023-08-13T09:27:09.186Z,5.97
2023-08-13T09:29:37.869Z,8.18
2023-08-13T09:32:05.939Z,5.80
2023-08-13T09:34:34.911Z,10.60
2023-08-13T09:37:02.795Z,5.70
2023-08-13T09:39:31.954Z,6.20
2023-08-13T09:42:00.454Z,8.32
2023-08-13T09:44:31.252Z,7.22
2023-08-13T09:47:02.280Z,6.28
2023-08-13T09:49:31.072Z,5.13
2023-08-13T09:52:03.914Z,8.23
2023-08-13T09:54:37.147Z,7.65
2023-08-13T09:57:05.984Z,6.13
2023-08-13T09:59:36.164Z,7.10
2023-08-13T10:02:07.184Z,5.27
2023-08-13T10:04:35.835Z,6.53
2023-08-13T10:07:05.641Z,8.82
2023-08-13T10:09:34.342Z,9.80
2023-08-13T10:12:02.425Z,8.82
2023-08-13T10:14:30.553Z,5.40
2023-08-13T10:17:01.822Z,6.80
2023-08-13T10:19:30.172Z,8.25
2023-08-13T10:21:58.202Z,4.70
2023-08-13T10:24:26.257Z,7.88
2023-08-13T10:26:54.310Z,9.03
2023-08-13T10:29:23.462Z,4.28
2023-08-13T10:32:01.042Z,5.10
2023-08-13T10:34:40.247Z,6.97
2023-08-13T10:37:16.223Z,8.07
2023-08-13T10:39:44.439Z,5.37
2023-08-13T10:42:30.780Z,4.80
2023-08-13T10:45:03.679Z,4.65
2023-08-13T10:47:40.678Z,4.57
2023-08-13T10:50:08.881Z,5.32
2023-08-13T10:52:36.539Z,4.73
2023-08-13T10:55:04.396Z,4.38
2023-08-13T10:57:34.112Z,6.38
2023-08-13T11:00:06.373Z,3.78
2023-08-13T11:02:34.541Z,6.38
2023-08-13T11:05:04.102Z,3.63
2023-08-13T11:07:32.923Z,6.68
2023-08-13T11:10:00.668Z,5.88
2023-08-13T11:12:29.087Z,6.47
2023-08-13T11:14:56.707Z,4.40
2023-08-13T11:17:24.223Z,4.93
2023-08-13T11:19:51.926Z,6.40
2023-08-13T11:22:21.000Z,3.55
2023-08-13T11:24:48.694Z,3.67
2023-08-13T11:27:16.538Z,4.97
2023-08-13T11:29:44.399Z,6.17
2023-08-13T11:32:12.121Z,4.63
2023-08-13T11:34:39.720Z,4.75
2023-08-13T11:37:07.483Z,4.18
2023-08-13T11:39:36.735Z,6.55
2023-08-13T11:42:10.752Z,4.17
2023-08-13T11:44:38.781Z,7.60
2023-08-13T11:47:08.650Z,7.07
2023-08-13T11:49:42.522Z,5.88
2023-08-13T11:52:12.285Z,4.07
2023-08-13T11:54:41.976Z,5.33
2023-08-13T11:57:09.656Z,3.88
2023-08-13T11:59:37.283Z,4.90
2023-08-13T12:02:05.297Z,4.03
2023-08-13T12:04:37.304Z,5.32
2023-08-13T12:07:09.099Z,3.10
2023-08-13T12:09:36.671Z,4.20
2023-08-13T12:12:05.905Z,3.35
2023-08-13T12:14:33.711Z,5.22
2023-08-13T12:17:01.361Z,4.80
2023-08-13T12:19:28.931Z,3.87
2023-08-13T12:21:56.583Z,4.65
2023-08-13T12:24:24.128Z,3.78
2023-08-13T12:26:51.737Z,3.63
2023-08-13T12:29:24.107Z,4.88
2023-08-13T12:31:52.500Z,4.50
2023-08-13T12:34:20.305Z,4.38
2023-08-13T12:36:48.601Z,4.40
2023-08-13T12:39:16.381Z,4.60
2023-08-13T12:41:44.278Z,3.33
2023-08-13T12:44:11.918Z,5.70
2023-08-13T12:46:40.905Z,3.53
2023-08-13T12:49:09.020Z,4.32
2023-08-13T12:51:36.658Z,3.85
2023-08-13T12:54:04.397Z,5.18
2023-08-13T12:56:32.173Z,5.97
2023-08-13T12:58:59.922Z,4.00
2023-08-13T13:01:28.229Z,5.03
2023-08-13T13:03:57.327Z,5.88
2023-08-13T13:06:24.900Z,4.07
2023-08-13T13:08:52.499Z,5.70
2023-08-13T13:11:20.131Z,7.05
2023-08-13T13:13:47.733Z,5.70
2023-08-13T13:16:15.717Z,4.97
2023-08-13T13:18:44.995Z,5.88
2023-08-13T13:21:14.270Z,4.53
2023-08-13T13:23:41.922Z,4.20
2023-08-13T13:26:10.250Z,4.07
2023-08-13T13:28:39.129Z,4.18
2023-08-13T13:31:06.776Z,4.70
2023-08-13T13:33:34.682Z,7.20
2023-08-13T13:36:02.502Z,5.15
2023-08-13T13:38:31.564Z,3.53
2023-08-13T13:40:59.530Z,4.38
2023-08-13T13:43:27.500Z,4.20
2023-08-13T13:45:55.276Z,5.03
2023-08-13T13:48:22.926Z,3.33
2023-08-13T13:50:50.478Z,3.72
2023-08-13T13:53:20.496Z,5.78
2023-08-13T13:55:50.179Z,5.95
2023-08-13T13:58:17.882Z,4.00
2023-08-13T14:00:45.757Z,4.05
2023-08-13T14:03:13.582Z,6.07
2023-08-13T14:05:41.258Z,5.47
2023-08-13T14:08:09.216Z,3.95
2023-08-13T14:10:36.910Z,5.20
2023-08-13T14:13:06.089Z,5.00
2023-08-13T14:15:33.668Z,4.65
2023-08-13T14:18:03.567Z,4.68
2023-08-13T14:20:35.596Z,6.03
2023-08-13T14:23:05.821Z,5.63
2023-08-13T14:25:33.465Z,5.60
2023-08-13T14:28:01.098Z,4.82
2023-08-13T14:30:30.712Z,6.90
2023-08-13T14:32:58.343Z,6.40
2023-08-13T14:35:26.032Z,5.27
2023-08-13T14:37:53.745Z,5.88
2023-08-13T14:40:23.268Z,5.93
2023-08-13T14:42:50.909Z,8.90
2023-08-13T14:45:18.905Z,5.40
2023-08-13T14:47:47.893Z,6.30
2023-08-13T14:50:15.569Z,6.88
2023-08-13T14:52:43.203Z,4.97
2023-08-13T14:55:10.973Z,7.30
2023-08-13T14:57:38.541Z,5.28
2023-08-13T15:00:09.858Z,7.43
2023-08-13T15:02:37.673Z,8.77
2023-08-13T15:05:08.467Z,8.38
2023-08-13T15:07:36.411Z,8.20
2023-08-13T15:10:09.467Z,5.30
2023-08-13T15:12:42.595Z,5.10
2023-08-13T15:15:11.635Z,8.23
2023-08-13T15:17:39.333Z,6.78
2023-08-13T15:20:11.654Z,5.95
2023-08-13T15:22:39.903Z,6.93
2023-08-13T15:25:07.912Z,5.83
2023-08-13T15:27:35.581Z,10.02
2023-08-13T15:30:04.265Z,6.55
2023-08-13T15:32:32.112Z,6.38
2023-08-13T15:34:59.821Z,6.53
2023-08-13T15:37:31.263Z,7.17
2023-08-13T15:39:59.028Z,7.05
2023-08-13T15:42:27.338Z,6.03
2023-08-13T15:44:54.877Z,9.80
2023-08-13T15:47:22.919Z,6.72
2023-08-13T15:49:50.486Z,7.43
2023-08-13T15:52:18.378Z,5.85
2023-08-13T15:54:47.725Z,8.63
2023-08-13T15:57:15.384Z,6.55
2023-08-13T15:59:42.924Z,5.72
2023-08-13T16:02:10.852Z,5.67
2023-08-13T16:04:38.429Z,8.60
2023-08-13T16:07:06.304Z,11.40
2023-08-13T16:09:34.152Z,9.73
2023-08-13T16:12:03.928Z,9.90
2023-08-13T16:14:31.642Z,9.40
2023-08-13T16:16:59.397Z,9.50
2023-08-13T16:19:27.145Z,8.05
2023-08-13T16:21:54.819Z,7.45
2023-08-13T16:24:22.528Z,11.27
2023-08-13T16:26:50.064Z,9.27
2023-08-13T16:29:19.032Z,10.20
2023-08-13T16:31:47.129Z,9.70
2023-08-13T16:34:15.224Z,8.32
2023-08-13T16:36:43.306Z,8.45
2023-08-13T16:39:12.246Z,13.50
2023-08-13T16:41:39.861Z,9.75
2023-08-13T16:44:07.652Z,10.70
2023-08-13T16:46:36.655Z,6.10
2023-08-13T16:49:04.296Z,8.90
2023-08-13T16:51:31.937Z,9.23
2023-08-13T16:53:59.637Z,7.50
2023-08-13T16:56:28.202Z,9.38
2023-08-13T16:58:55.883Z,8.85
2023-08-13T17:01:23.856Z,6.88
2023-08-13T17:03:52.868Z,8.00
2023-08-13T17:06:20.435Z,7.00
2023-08-13T17:08:49.350Z,9.13
2023-08-13T17:11:17.096Z,6.55
2023-08-13T17:13:44.623Z,9.27
2023-08-13T17:16:12.393Z,7.67
2023-08-13T17:18:40.034Z,7.00
2023-08-13T17:21:08.977Z,8.73
2023-08-13T17:23:37.017Z,6.93
2023-08-13T17:26:05.009Z,10.57
2023-08-13T17:28:32.613Z,7.30
2023-08-13T17:31:00.282Z,5.10
2023-08-13T17:33:28.358Z,9.55
2023-08-13T17:35:56.994Z,8.93
2023-08-13T17:38:27.522Z,8.35
2023-08-13T17:40:55.144Z,9.33
2023-08-13T17:43:22.689Z,8.95
2023-08-13T17:45:50.427Z,8.68
2023-08-13T17:48:19.247Z,8.68
2023-08-13T17:50:46.981Z,8.40
2023-08-13T17:53:14.661Z,9.57
2023-08-13T17:55:43.717Z,11.07
2023-08-13T17:58:11.409Z,14.10
2023-08-13T18:00:39.083Z,7.05
2023-08-13T18:03:14.818Z,7.18
2023-08-13T18:05:42.491Z,10.40
2023-08-13T18:08:15.771Z,10.07
2023-08-13T18:10:45.382Z,10.65
2023-08-13T18:13:13.234Z,9.25
2023-08-13T18:15:43.841Z,9.18
2023-08-13T18:18:13.165Z,12.07
2023-08-13T18:20:43.773Z,13.70
2023-08-13T18:23:11.529Z,8.68
2023-08-13T18:25:39.349Z,12.10
2023-08-13T18:28:08.403Z,10.27
2023-08-13T18:30:37.309Z,8.83
2023-08-13T18:33:05.213Z,9.30
2023-08-13T18:35:32.863Z,10.75
2023-08-13T18:38:01.551Z,10.90
2023-08-13T18:40:29.812Z,9.63
2023-08-13T18:42:57.350Z,7.13
2023-08-13T18:45:31.636Z,11.27
2023-08-13T18:47:59.456Z,8.60
2023-08-13T18:50:27.128Z,11.10
2023-08-13T18:52:55.265Z,10.57
2023-08-13T18:55:23.053Z,9.43
2023-08-13T18:57:50.666Z,6.45
2023-08-13T19:00:18.495Z,7.55
2023-08-13T19:02:47.838Z,11.10
2023-08-13T19:05:15.448Z,9.32
2023-08-13T19:07:43.066Z,8.53
2023-08-13T19:10:10.843Z,11.50
2023-08-13T19:12:38.405Z,9.20
2023-08-13T19:15:06.478Z,9.68
2023-08-13T19:17:34.939Z,13.13
2023-08-13T19:20:04.437Z,9.57
2023-08-13T19:22:32.032Z,10.40
2023-08-13T19:24:59.701Z,10.77
2023-08-13T19:27:27.750Z,7.38
2023-08-13T19:29:55.369Z,8.98
2023-08-13T19:32:23.230Z,10.70
2023-08-13T19:34:50.938Z,11.43
2023-08-13T19:37:19.867Z,8.13
2023-08-13T19:39:47.526Z,11.85
2023-08-13T19:42:15.510Z,12.93
2023-08-13T19:44:43.460Z,7.93
2023-08-13T19:47:11.739Z,9.05
2023-08-13T19:49:40.264Z,13.23
2023-08-13T19:52:09.606Z,11.35
2023-08-13T19:54:38.852Z,9.95
2023-08-13T19:57:06.718Z,9.20
2023-08-13T19:59:34.329Z,8.48
2023-08-13T20:02:01.988Z,8.32
2023-08-13T20:04:30.005Z,12.85
2023-08-13T20:06:57.933Z,11.02
2023-08-13T20:09:26.170Z,7.97
2023-08-13T20:11:55.601Z,8.43
2023-08-13T20:14:23.468Z,7.10
2023-08-13T20:16:51.079Z,8.55
2023-08-13T20:19:19.880Z,7.05
2023-08-13T20:21:48.297Z,6.47
2023-08-13T20:24:16.403Z,7.65
2023-08-13T20:26:44.311Z,7.18
2023-08-13T20:29:15.064Z,5.03
2023-08-13T20:31:43.854Z,7.45
2023-08-13T20:34:11.885Z,8.00
2023-08-13T20:36:39.857Z,8.23
2023-08-13T20:39:08.299Z,6.05
2023-08-13T20:41:36.148Z,8.15
2023-08-13T20:44:08.052Z,7.07
2023-08-13T20:46:37.067Z,8.47
2023-08-13T20:49:06.361Z,10.52
2023-08-13T20:51:35.520Z,5.95
2023-08-13T20:54:03.360Z,7.72
2023-08-13T20:56:31.404Z,9.55
2023-08-13T20:58:58.979Z,7.90
2023-08-13T21:01:27.320Z,8.30
2023-08-13T21:03:56.492Z,7.45
2023-08-13T21:06:26.926Z,8.80
2023-08-13T21:08:57.211Z,8.23
2023-08-13T21:11:25.983Z,8.37
2023-08-13T21:13:53.949Z,9.35
2023-08-13T21:16:21.930Z,8.60
2023-08-13T21:18:49.862Z,8.05
2023-08-13T21:21:18.927Z,7.28
2023-08-13T21:23:46.560Z,8.83
2023-08-13T21:26:15.977Z,8.77
2023-08-13T21:28:43.617Z,7.80
2023-08-13T21:31:14.547Z,7.90
2023-08-13T21:33:42.182Z,8.05
2023-08-13T21:36:09.810Z,6.87
2023-08-13T21:38:38.955Z,6.07
2023-08-13T21:41:06.608Z,7.45
2023-08-13T21:43:34.331Z,9.45
2023-08-13T21:46:02.189Z,6.00
2023-08-13T21:48:29.795Z,6.73
2023-08-13T21:50:58.919Z,9.55
2023-08-13T21:53:27.752Z,6.68
2023-08-13T21:55:57.171Z,9.38
2023-08-13T21:58:25.049Z,8.75
2023-08-13T22:00:53.284Z,11.23
2023-08-13T22:03:25.432Z,10.73
2023-08-13T22:05:53.331Z,9.27
2023-08-13T22:08:21.067Z,8.70
2023-08-13T22:10:49.095Z,14.20
2023-08-13T22:13:18.159Z,8.00
2023-08-13T22:15:45.944Z,9.55
2023-08-13T22:18:13.625Z,11.38
2023-08-13T22:20:41.258Z,10.95
2023-08-13T22:23:08.849Z,10.18
2023-08-13T22:25:36.599Z,11.20
2023-08-13T22:28:05.375Z,8.32
2023-08-13T22:30:34.428Z,11.38
2023-08-13T22:33:02.074Z,13.23
2023-08-13T22:35:29.734Z,11.15
2023-08-13T22:37:57.534Z,9.87
2023-08-13T22:40:25.118Z,8.93
2023-08-13T22:42:52.841Z,9.27
2023-08-13T22:45:20.482Z,8.90
2023-08-13T22:47:49.512Z,9.73
2023-08-13T22:50:17.193Z,9.70
2023-08-13T22:52:44.816Z,9.15
2023-08-13T22:55:12.578Z,10.07
2023-08-13T22:57:40.383Z,10.63
2023-08-13T23:00:09.479Z,13.82
2023-08-13T23:02:37.141Z,10.73
2023-08-13T23:05:07.984Z,11.32
2023-08-13T23:07:35.675Z,13.82
2023-08-13T23:10:13.154Z,14.48
2023-08-13T23:12:40.776Z,12.38
2023-08-13T23:15:08.900Z,12.20
2023-08-13T23:17:36.712Z,15.02
2023-08-13T23:20:04.785Z,12.40
2023-08-13T23:22:33.720Z,17.67
2023-08-13T23:25:01.365Z,17.48
2023-08-13T23:27:29.258Z,13.73
2023-08-13T23:29:56.914Z,12.57
2023-08-13T23:32:24.650Z,13.23
2023-08-13T23:34:52.364Z,12.88
2023-08-13T23:37:19.945Z,12.23
2023-08-13T23:39:49.078Z,11.90
2023-08-13T23:42:18.226Z,16.08
2023-08-13T23:44:46.004Z,13.48
2023-08-13T23:47:14.020Z,12.02
2023-08-13T23:49:41.687Z,16.48
2023-08-13T23:52:09.630Z,13.97
2023-08-13T23:54:37.293Z,13.65
2023-08-13T23:57:06.750Z,13.68
2023-08-13T23:59:34.436Z,19.98
